CheckWX is a tool to help pilots better visualize weather data.  It is not intended as a substitute for an official pre-flight weather briefing.

17:55:14 UTC

KIXD METAR
New Century Aircenter Airport
Olathe, Kansas, USA
Current

38 mins ago

KIXD 211717Z 01012KT 10SM SCT019 BKN027 OVC033 26/22 A3001 RMK AO2 T02560222
Observed
Jul-21 @ 17:17 UTC
Wind
  • 010° at 12 KTS
Visibility
10 SM
Flight Rules
MVFR
Cloud Levels
  • Scattered at 1,900' AGL
  • Broken at 2,700' AGL
  • Overcast at 3,300' AGL
Temperature
26°C / 79°F
Dewpoint
22°C / 72°F
Humidity
79%
Altimeter
30.01" Hg
Pressure
1016.22 hPa
Previous

1 hour ago

KIXD 211653Z 35013KT 10SM FEW021 SCT034 OVC095 28/23 A3000 RMK AO2 SLP145 T02780228
Observed
Jul-21 @ 16:53 UTC
Wind
  • 350° at 13 KTS
Visibility
10 SM
Flight Rules
VFR
Cloud Levels
  • Few at 2,100' AGL
  • Scattered at 3,400' AGL
  • Overcast at 9,500' AGL
Temperature
28°C / 82°F
Dewpoint
23°C / 73°F
Heat Index
31°C / 87°F
Humidity
74%
Altimeter
30" Hg
Pressure
1015.92 hPa
Previous

2 hours ago

KIXD 211553Z 17005KT 10SM CLR 29/22 A2995 RMK AO2 SLP129 T02940222
Observed
Jul-21 @ 15:53 UTC
Wind
  • 170° at 5 KTS
Visibility
10 SM
Flight Rules
VFR
Cloud Levels
  • Clear skies
Temperature
29°C / 84°F
Dewpoint
22°C / 72°F
Heat Index
32°C / 89°F
Humidity
66%
Altimeter
29.95" Hg
Pressure
1014.22 hPa